Time;durP1;ratioP1;P1;durP2;ratioP2;P2;SDS_P1;SDS_P2;PMS_P1;PMS_P2;Temp;Humidity;BMP_temperature;BMP_pressure;BME280_temperature;BME280_humidity;BME280_pressure;Samples;Min_cycle;Max_cycle;Signal;HPM_P1;HPM_P2
2022/05/06 00:01:00;;;;;;;24.02;15.82;;;12.30;99.90;;;;;;5084528;28;20101;-62
2022/05/06 00:03:26;;;;;;;26.08;16.85;;;12.30;99.90;;;;;;5090734;28;20036;-63
2022/05/06 00:05:52;;;;;;;26.48;15.80;;;12.30;99.90;;;;;;5084465;28;20131;-63
2022/05/06 00:08:18;;;;;;;17.85;12.95;;;12.20;99.90;;;;;;5084635;28;20176;-63
2022/05/06 00:10:43;;;;;;;16.80;10.90;;;12.20;99.90;;;;;;5084031;28;20032;-63
2022/05/06 00:13:09;;;;;;;15.55;10.07;;;12.20;99.90;;;;;;5088370;28;20054;-63
2022/05/06 00:15:35;;;;;;;15.90;9.70;;;12.10;99.90;;;;;;5082783;28;20606;-64
2022/05/06 00:18:01;;;;;;;16.45;10.45;;;12.10;99.90;;;;;;5080172;28;20058;-64
2022/05/06 00:20:27;;;;;;;15.05;11.30;;;12.10;99.90;;;;;;5085999;28;20421;-63
2022/05/06 00:22:52;;;;;;;17.00;11.60;;;12.00;99.90;;;;;;5085115;28;20040;-63
2022/05/06 00:25:18;;;;;;;21.77;13.50;;;12.00;99.90;;;;;;5082751;28;20052;-65
2022/05/06 00:27:43;;;;;;;31.08;18.30;;;11.90;99.90;;;;;;5085148;28;20044;-64
2022/05/06 00:30:10;;;;;;;34.10;19.80;;;11.90;99.90;;;;;;5086093;28;20039;-62
2022/05/06 00:32:35;;;;;;;31.55;21.30;;;11.80;99.90;;;;;;5086208;28;20040;-63
2022/05/06 00:35:01;;;;;;;33.55;21.23;;;11.80;99.90;;;;;;5084680;28;20050;-63
2022/05/06 00:37:27;;;;;;;30.65;20.70;;;11.80;99.90;;;;;;5082268;28;20036;-63
2022/05/06 00:39:53;;;;;;;31.77;20.13;;;11.70;99.90;;;;;;5086046;28;20036;-63
2022/05/06 00:42:19;;;;;;;30.67;20.20;;;11.70;99.90;;;;;;5087908;28;20403;-62
2022/05/06 00:44:45;;;;;;;31.42;20.35;;;11.70;99.90;;;;;;5087537;28;20123;-62
2022/05/06 00:47:11;;;;;;;34.47;20.85;;;11.70;99.90;;;;;;5083065;28;20056;-62
2022/05/06 00:49:37;;;;;;;34.38;21.85;;;11.60;99.90;;;;;;5084060;28;20044;-62
2022/05/06 00:52:04;;;;;;;35.10;21.83;;;11.60;99.90;;;;;;5085596;28;20036;-64
2022/05/06 00:54:33;;;;;;;29.38;20.15;;;11.60;99.90;;;;;;5088410;28;20502;-62
2022/05/06 00:57:00;;;;;;;33.40;20.65;;;11.60;99.90;;;;;;5082888;28;20492;-63
2022/05/06 00:59:26;;;;;;;31.85;20.13;;;11.60;99.90;;;;;;5086846;28;20159;-62
2022/05/06 01:01:52;;;;;;;32.78;21.17;;;11.60;99.90;;;;;;5085054;28;20044;-62
2022/05/06 01:04:17;;;;;;;34.85;21.55;;;11.60;99.90;;;;;;5086743;28;20040;-62
2022/05/06 01:06:44;;;;;;;31.30;20.20;;;11.60;99.90;;;;;;5082924;28;20099;-62
2022/05/06 01:09:15;;;;;;;32.38;20.85;;;11.60;99.90;;;;;;5085144;28;20047;-62
2022/05/06 01:11:42;;;;;;;32.03;20.63;;;11.60;99.90;;;;;;5085007;28;20040;-62
2022/05/06 01:14:07;;;;;;;31.63;20.63;;;11.60;99.90;;;;;;5087811;28;20488;-62
2022/05/06 01:16:34;;;;;;;31.25;20.55;;;11.50;99.90;;;;;;5081206;28;20032;-62
2022/05/06 01:19:00;;;;;;;32.38;19.67;;;11.50;99.90;;;;;;5080067;28;20372;-62
2022/05/06 01:21:27;;;;;;;31.50;19.15;;;11.60;99.90;;;;;;5082514;28;20037;-63
2022/05/06 01:23:53;;;;;;;30.95;19.60;;;11.50;99.90;;;;;;5083693;28;20874;-62
2022/05/06 01:26:19;;;;;;;32.05;18.65;;;11.40;99.90;;;;;;5086240;28;20175;-62
2022/05/06 01:28:45;;;;;;;32.92;19.65;;;11.40;99.90;;;;;;5080997;28;20067;-62
2022/05/06 01:31:24;;;;;;;30.17;19.60;;;11.40;99.90;;;;;;5082601;28;20055;-62
2022/05/06 01:33:55;;;;;;;28.10;19.00;;;11.40;99.90;;;;;;5086310;28;20055;-62
2022/05/06 01:36:24;;;;;;;26.58;18.10;;;11.30;99.90;;;;;;5082265;28;20181;-62
2022/05/06 01:38:52;;;;;;;26.98;18.50;;;11.30;99.90;;;;;;5081289;28;20073;-63
2022/05/06 01:41:23;;;;;;;27.38;17.73;;;11.30;99.90;;;;;;5078452;28;20044;-62
2022/05/06 01:44:01;;;;;;;27.52;17.67;;;11.30;99.90;;;;;;5085220;28;20051;-62
2022/05/06 01:46:29;;;;;;;27.27;18.27;;;11.20;99.90;;;;;;5080414;28;20056;-63
2022/05/06 01:48:55;;;;;;;26.10;17.85;;;11.20;99.90;;;;;;5085393;28;20054;-62
2022/05/06 01:51:22;;;;;;;28.60;18.50;;;11.20;99.90;;;;;;5082431;28;20055;-62
2022/05/06 01:53:49;;;;;;;26.88;18.10;;;11.10;99.90;;;;;;5086354;28;20112;-63
2022/05/06 01:56:18;;;;;;;25.83;17.60;;;11.10;99.90;;;;;;5083776;28;20051;-62
2022/05/06 01:58:44;;;;;;;26.73;16.80;;;11.10;99.90;;;;;;5082462;28;20048;-62
2022/05/06 02:01:11;;;;;;;25.15;16.27;;;11.10;99.90;;;;;;5080769;28;20602;-63
2022/05/06 02:06:21;;;;;;;23.73;15.67;;;11.00;99.90;;;;;;5083443;28;20452;-63
2022/05/06 02:08:47;;;;;;;22.63;15.52;;;11.00;99.90;;;;;;5082250;28;20040;-63
2022/05/06 02:11:12;;;;;;;22.00;15.32;;;10.90;99.90;;;;;;5082990;28;20051;-63
2022/05/06 02:13:38;;;;;;;21.67;14.90;;;10.90;99.90;;;;;;5084963;28;20042;-63
2022/05/06 02:16:04;;;;;;;22.17;14.57;;;10.90;99.90;;;;;;5084181;28;20499;-63
2022/05/06 02:18:30;;;;;;;22.17;14.55;;;10.80;99.90;;;;;;5080720;28;20044;-63
2022/05/06 02:20:57;;;;;;;21.67;14.35;;;10.80;99.90;;;;;;5083393;28;20074;-63
2022/05/06 02:23:23;;;;;;;22.45;14.90;;;10.80;99.90;;;;;;5082701;28;20051;-63
2022/05/06 02:25:49;;;;;;;22.05;14.57;;;10.70;99.90;;;;;;5081849;28;20044;-63
2022/05/06 02:28:14;;;;;;;21.83;13.60;;;10.70;99.90;;;;;;5079737;28;20104;-62
2022/05/06 02:33:25;;;;;;;23.70;14.73;;;10.60;99.90;;;;;;5087395;28;20418;-62
2022/05/06 02:35:52;;;;;;;21.98;15.07;;;10.60;99.90;;;;;;5083186;28;20036;-63
2022/05/06 02:38:18;;;;;;;23.80;15.32;;;10.60;99.90;;;;;;5083773;28;20054;-63
2022/05/06 02:40:44;;;;;;;19.83;14.38;;;10.50;99.90;;;;;;5082798;28;20412;-63
2022/05/06 02:43:10;;;;;;;23.58;15.52;;;10.50;99.90;;;;;;5084189;28;20069;-63
2022/05/06 02:45:35;;;;;;;24.63;15.70;;;10.50;99.90;;;;;;5084661;28;20082;-62
2022/05/06 02:48:02;;;;;;;23.55;16.00;;;10.50;99.90;;;;;;5079096;28;21214;-64
2022/05/06 02:50:28;;;;;;;24.42;15.70;;;10.50;99.90;;;;;;5081374;28;20428;-62
2022/05/06 02:52:54;;;;;;;25.52;17.15;;;10.40;99.90;;;;;;5082058;28;20040;-64
2022/05/06 02:55:21;;;;;;;26.38;16.40;;;10.40;99.90;;;;;;5083869;28;20036;-63
2022/05/06 02:57:47;;;;;;;26.73;17.25;;;10.40;99.90;;;;;;5080908;28;20075;-62
2022/05/06 03:00:13;;;;;;;25.95;17.58;;;10.30;99.90;;;;;;5082498;28;20052;-64
2022/05/06 03:02:40;;;;;;;28.67;18.88;;;10.30;99.90;;;;;;5083571;28;20039;-62
2022/05/06 03:05:06;;;;;;;28.30;19.15;;;10.30;99.90;;;;;;5083703;28;20091;-63
2022/05/06 03:07:31;;;;;;;25.58;17.60;;;10.30;99.90;;;;;;5083211;28;20372;-63
2022/05/06 03:09:57;;;;;;;28.45;18.30;;;10.20;99.90;;;;;;5084434;28;20051;-62
2022/05/06 03:12:26;;;;;;;28.25;17.33;;;10.20;99.90;;;;;;5084819;28;20040;-63
2022/05/06 03:14:52;;;;;;;20.80;13.38;;;10.20;99.90;;;;;;5077821;28;20496;-61
2022/05/06 03:17:17;;;;;;;17.95;11.40;;;10.20;99.90;;;;;;5079680;28;20036;-63
2022/05/06 03:19:43;;;;;;;17.70;11.35;;;10.20;99.90;;;;;;5079534;28;20036;-63
2022/05/06 03:22:09;;;;;;;20.40;13.65;;;10.10;99.90;;;;;;5079335;28;20150;-62
2022/05/06 03:24:34;;;;;;;20.80;13.88;;;10.10;99.90;;;;;;5079304;28;20036;-63
2022/05/06 03:27:00;;;;;;;21.88;15.43;;;10.10;99.90;;;;;;5078077;28;20043;-64
2022/05/06 03:29:26;;;;;;;21.75;15.10;;;10.10;99.90;;;;;;5079434;28;20036;-62
2022/05/06 03:31:53;;;;;;;21.40;13.77;;;10.10;99.90;;;;;;5080265;28;20044;-62
2022/05/06 03:34:19;;;;;;;25.55;15.13;;;10.20;99.90;;;;;;5081491;28;20089;-62
2022/05/06 03:36:45;;;;;;;23.42;14.07;;;10.20;99.90;;;;;;5081119;28;20052;-62
2022/05/06 03:39:11;;;;;;;39.45;20.45;;;10.10;99.90;;;;;;5084749;28;20052;-62
2022/05/06 03:41:37;;;;;;;40.85;21.83;;;10.20;99.90;;;;;;5082087;28;20053;-62
2022/05/06 03:44:03;;;;;;;63.33;24.08;;;10.20;99.90;;;;;;5062183;28;20044;-62
2022/05/06 03:46:28;;;;;;;243.30;29.67;;;10.20;99.90;;;;;;5080474;28;20111;-62
2022/05/06 03:48:55;;;;;;;108.18;25.92;;;10.20;99.90;;;;;;5084544;28;20127;-62
2022/05/06 03:51:20;;;;;;;236.75;31.02;;;10.20;99.90;;;;;;5082544;28;21731;-63
2022/05/06 03:53:47;;;;;;;102.20;25.23;;;10.20;99.90;;;;;;5085603;28;20040;-63
2022/05/06 03:56:12;;;;;;;157.65;25.67;;;10.20;99.90;;;;;;5083267;28;20052;-62
2022/05/06 03:58:38;;;;;;;66.03;22.70;;;10.10;99.90;;;;;;5080372;28;20063;-62
2022/05/06 04:01:04;;;;;;;67.60;23.48;;;10.10;99.90;;;;;;5084828;28;20143;-62
2022/05/06 04:03:31;;;;;;;143.93;25.50;;;10.10;99.90;;;;;;5085984;28;20040;-63
2022/05/06 04:05:57;;;;;;;98.75;24.17;;;10.20;99.90;;;;;;5090228;28;20066;-62
2022/05/06 04:08:23;;;;;;;288.55;30.25;;;10.20;99.90;;;;;;5081446;28;20222;-63
2022/05/06 04:10:49;;;;;;;246.23;28.75;;;10.10;99.90;;;;;;5090611;28;20122;-62
2022/05/06 04:13:16;;;;;;;229.80;28.65;;;10.10;99.90;;;;;;5087112;28;20119;-63
2022/05/06 04:15:42;;;;;;;95.10;25.27;;;10.10;99.90;;;;;;5089203;28;20502;-64
2022/05/06 04:18:08;;;;;;;94.32;23.73;;;10.20;99.90;;;;;;5086664;28;20655;-62
2022/05/06 04:23:30;;;;;;;172.85;26.83;;;10.20;99.90;;;;;;5082507;28;20430;-62
2022/05/06 04:26:00;;;;;;;153.77;26.73;;;10.30;99.90;;;;;;5087195;28;20098;-63
2022/05/06 04:28:27;;;;;;;158.60;25.92;;;10.30;99.90;;;;;;5079384;28;20125;-62
2022/05/06 04:30:53;;;;;;;194.80;26.80;;;10.30;99.90;;;;;;5080896;28;20040;-62
2022/05/06 04:33:19;;;;;;;169.10;27.90;;;10.30;99.90;;;;;;5083068;28;20028;-63
2022/05/06 04:35:46;;;;;;;244.93;29.85;;;10.40;99.90;;;;;;5086566;28;20123;-62
2022/05/06 04:38:11;;;;;;;108.97;26.65;;;10.40;99.90;;;;;;5084097;28;20108;-62
2022/05/06 04:40:38;;;;;;;83.15;25.70;;;10.40;99.90;;;;;;5085187;28;20119;-63
2022/05/06 04:43:04;;;;;;;76.88;25.67;;;10.50;99.90;;;;;;5081276;28;20472;-62
2022/05/06 04:45:30;;;;;;;114.30;28.25;;;10.60;99.90;;;;;;5085878;28;20044;-62
2022/05/06 04:47:56;;;;;;;144.50;30.00;;;10.60;99.90;;;;;;5084743;28;20143;-63
2022/05/06 04:50:22;;;;;;;61.92;25.65;;;10.70;99.90;;;;;;5076470;28;20498;-63
2022/05/06 04:52:49;;;;;;;113.57;29.42;;;10.70;99.90;;;;;;5083183;28;20067;-62
2022/05/06 04:55:15;;;;;;;59.90;25.92;;;10.80;99.90;;;;;;5085125;28;20055;-63
2022/05/06 04:57:40;;;;;;;64.88;25.13;;;10.80;99.90;;;;;;5085752;28;20048;-63
2022/05/06 05:00:07;;;;;;;57.95;26.08;;;10.90;99.90;;;;;;5085966;28;20215;-62
2022/05/06 05:02:33;;;;;;;98.82;27.92;;;11.00;99.90;;;;;;5080903;28;20232;-63
2022/05/06 05:04:58;;;;;;;59.65;24.98;;;11.00;99.90;;;;;;5081067;28;20036;-62
2022/05/06 05:07:25;;;;;;;74.53;26.33;;;11.00;99.90;;;;;;5081377;28;20036;-64
2022/05/06 05:09:50;;;;;;;137.73;29.80;;;11.00;99.90;;;;;;5081523;28;20375;-60
2022/05/06 05:12:16;;;;;;;198.48;32.13;;;11.10;99.90;;;;;;5083273;28;20055;-62
2022/05/06 05:14:42;;;;;;;87.68;29.27;;;11.20;99.90;;;;;;5076404;28;20032;-61
2022/05/06 05:17:11;;;;;;;155.25;31.88;;;11.10;99.90;;;;;;5075552;28;20044;-61
2022/05/06 05:19:37;;;;;;;95.15;30.50;;;11.20;99.90;;;;;;5079392;28;20155;-62
2022/05/06 05:22:04;;;;;;;132.82;31.05;;;11.30;99.90;;;;;;5080021;28;20436;-62
2022/05/06 05:24:30;;;;;;;101.10;29.85;;;11.30;99.90;;;;;;5079994;28;20055;-62
2022/05/06 05:26:57;;;;;;;71.78;31.08;;;11.40;99.90;;;;;;5081767;28;20035;-62
2022/05/06 05:29:23;;;;;;;109.72;30.88;;;11.40;99.90;;;;;;5080492;28;20497;-63
2022/05/06 05:31:50;;;;;;;85.82;31.00;;;11.50;99.90;;;;;;5083091;28;20071;-63
2022/05/06 05:34:15;;;;;;;144.60;35.08;;;11.50;99.90;;;;;;5082005;28;20134;-64
2022/05/06 05:36:41;;;;;;;64.20;29.85;;;11.50;99.90;;;;;;5078321;28;20814;-62
2022/05/06 05:39:07;;;;;;;68.72;28.80;;;11.60;99.90;;;;;;5081597;28;20066;-62
2022/05/06 05:41:33;;;;;;;81.43;30.25;;;11.60;99.90;;;;;;5080553;28;20832;-63
2022/05/06 05:49:28;;;;;;;60.70;27.73;;;11.60;99.90;;;;;;5080123;28;20432;-62
2022/05/06 05:51:54;;;;;;;84.50;29.67;;;11.60;99.90;;;;;;5078118;28;20048;-62
2022/05/06 05:54:19;;;;;;;93.10;31.45;;;11.60;99.90;;;;;;5080157;28;20055;-61
2022/05/06 05:56:45;;;;;;;102.40;31.77;;;11.70;99.90;;;;;;5085047;28;20059;-62
2022/05/06 05:59:11;;;;;;;84.50;30.27;;;11.70;99.90;;;;;;5080019;28;20071;-60
2022/05/06 06:01:36;;;;;;;76.93;30.05;;;11.70;99.90;;;;;;5078923;28;20052;-62
2022/05/06 06:04:03;;;;;;;77.40;31.50;;;11.70;99.90;;;;;;5086381;28;20120;-62
2022/05/06 06:06:29;;;;;;;119.32;31.38;;;11.80;99.90;;;;;;5083608;28;20040;-62
2022/05/06 06:08:54;;;;;;;63.63;30.90;;;11.80;99.90;;;;;;5082929;28;20502;-63
2022/05/06 06:11:20;;;;;;;64.28;28.40;;;11.90;99.90;;;;;;5079338;28;20036;-61
2022/05/06 06:13:46;;;;;;;61.72;27.35;;;11.90;99.90;;;;;;5082193;28;20520;-62
2022/05/06 06:16:12;;;;;;;61.80;26.65;;;11.90;99.90;;;;;;5081637;28;20032;-63
2022/05/06 06:18:37;;;;;;;53.38;24.27;;;12.00;99.90;;;;;;5079403;28;20067;-63
2022/05/06 06:21:03;;;;;;;51.50;24.30;;;12.00;99.90;;;;;;5084811;28;20437;-64
2022/05/06 06:23:32;;;;;;;58.38;26.35;;;12.10;99.90;;;;;;5085030;28;20040;-62
2022/05/06 06:25:58;;;;;;;57.38;26.90;;;12.10;99.90;;;;;;5081384;28;20032;-64
2022/05/06 06:28:24;;;;;;;48.47;21.85;;;12.10;99.90;;;;;;5081260;28;20040;-63
2022/05/06 06:30:49;;;;;;;49.42;21.52;;;12.20;99.90;;;;;;5081914;28;20119;-63
2022/05/06 06:33:16;;;;;;;50.78;22.70;;;12.20;99.90;;;;;;5065302;28;20044;-62
2022/05/06 06:35:41;;;;;;;44.03;20.27;;;12.30;99.90;;;;;;5083685;28;20044;-63
2022/05/06 06:38:07;;;;;;;46.72;21.75;;;12.30;99.90;;;;;;5087594;28;20117;-62
2022/05/06 06:40:33;;;;;;;49.30;21.40;;;12.30;99.90;;;;;;5087179;28;20421;-62
2022/05/06 06:43:03;;;;;;;45.30;21.33;;;12.30;99.90;;;;;;5089379;28;20166;-63
2022/05/06 06:45:29;;;;;;;46.60;21.88;;;12.40;99.90;;;;;;5088097;28;20044;-63
2022/05/06 06:47:55;;;;;;;51.58;23.38;;;12.50;99.90;;;;;;5086157;28;20044;-63
2022/05/06 06:50:21;;;;;;;48.42;21.73;;;12.50;99.90;;;;;;5086449;28;20107;-62
2022/05/06 06:52:47;;;;;;;49.00;22.42;;;12.60;99.90;;;;;;5085629;28;20055;-62
2022/05/06 06:55:12;;;;;;;46.33;21.08;;;12.60;99.90;;;;;;5084075;28;20446;-63
2022/05/06 06:57:39;;;;;;;52.30;23.27;;;12.70;99.90;;;;;;5086052;28;20094;-63
2022/05/06 07:00:05;;;;;;;59.38;26.15;;;12.80;99.90;;;;;;5086631;28;20463;-64
2022/05/06 07:02:31;;;;;;;52.47;23.90;;;12.80;99.90;;;;;;5086148;28;20067;-64
2022/05/06 07:04:58;;;;;;;53.38;24.60;;;12.80;99.90;;;;;;5085776;28;20098;-66
2022/05/06 07:12:52;;;;;;;37.78;19.38;;;12.90;99.90;;;;;;5090855;28;20048;-64
2022/05/06 07:15:18;;;;;;;34.08;18.25;;;13.00;99.90;;;;;;5083248;28;20044;-63
2022/05/06 07:17:43;;;;;;;27.67;16.20;;;12.90;99.90;;;;;;5084823;28;20055;-63
2022/05/06 07:20:10;;;;;;;27.70;15.10;;;12.90;99.90;;;;;;5084867;28;20138;-63
2022/05/06 07:22:36;;;;;;;22.38;14.25;;;13.00;99.90;;;;;;5089885;28;20054;-62
2022/05/06 07:25:02;;;;;;;19.92;13.27;;;13.10;99.90;;;;;;5089738;28;20348;-64
2022/05/06 07:27:27;;;;;;;20.30;13.02;;;13.10;99.90;;;;;;5088904;28;20036;-64
2022/05/06 07:29:53;;;;;;;19.77;13.73;;;13.20;99.90;;;;;;5082572;28;20040;-63
2022/05/06 07:32:18;;;;;;;17.23;11.80;;;13.30;99.90;;;;;;5086852;28;20036;-64
2022/05/06 07:34:44;;;;;;;17.38;12.50;;;13.40;99.90;;;;;;5085145;28;20081;-63
2022/05/06 07:37:10;;;;;;;16.58;12.55;;;13.40;99.90;;;;;;5086120;28;20040;-65
2022/05/06 07:39:35;;;;;;;18.23;12.98;;;13.60;99.90;;;;;;5084689;28;20036;-63
2022/05/06 07:42:01;;;;;;;17.25;12.98;;;13.70;99.90;;;;;;5083677;28;20436;-64
2022/05/06 07:44:26;;;;;;;16.17;12.38;;;13.70;99.90;;;;;;5086199;28;20133;-63
2022/05/06 07:46:52;;;;;;;15.82;12.13;;;13.70;99.90;;;;;;5085824;28;20456;-64
2022/05/06 07:49:17;;;;;;;16.27;12.48;;;13.80;99.90;;;;;;5084690;28;20028;-63
2022/05/06 07:51:43;;;;;;;14.45;11.32;;;13.90;99.90;;;;;;5083677;28;20070;-63
2022/05/06 07:54:09;;;;;;;14.55;10.90;;;14.00;99.90;;;;;;5085165;28;20127;-64
2022/05/06 07:56:35;;;;;;;14.07;11.23;;;14.10;99.90;;;;;;5083470;28;20073;-64
2022/05/06 07:59:01;;;;;;;13.57;11.02;;;14.20;99.90;;;;;;5082432;28;20112;-63
2022/05/06 08:06:56;;;;;;;13.32;11.52;;;14.30;99.90;;;;;;5089095;28;20680;-64
2022/05/06 08:09:22;;;;;;;12.95;11.15;;;14.50;99.90;;;;;;5090922;28;20044;-64
2022/05/06 08:11:48;;;;;;;14.38;10.75;;;14.50;99.90;;;;;;5090782;28;20050;-64
2022/05/06 08:14:17;;;;;;;14.55;11.13;;;14.60;99.90;;;;;;5089698;28;20357;-64
2022/05/06 08:16:44;;;;;;;14.27;10.93;;;14.70;99.90;;;;;;5088850;28;20040;-65
2022/05/06 08:19:09;;;;;;;13.30;10.75;;;14.80;99.90;;;;;;5088468;28;20383;-64
2022/05/06 08:21:35;;;;;;;12.82;10.45;;;14.90;99.90;;;;;;5086252;28;20052;-63
2022/05/06 08:24:01;;;;;;;12.27;10.27;;;15.10;99.90;;;;;;5091345;28;20036;-64
2022/05/06 08:26:26;;;;;;;12.70;10.00;;;15.20;99.90;;;;;;5087384;28;20115;-64
2022/05/06 08:28:52;;;;;;;12.75;9.63;;;15.30;99.90;;;;;;5088586;28;20044;-64
2022/05/06 08:31:17;;;;;;;13.68;10.35;;;15.30;99.90;;;;;;5088923;28;20039;-64
2022/05/06 08:33:43;;;;;;;13.18;10.18;;;15.30;99.90;;;;;;5090354;28;20385;-64
2022/05/06 08:36:09;;;;;;;13.05;10.40;;;15.20;99.90;;;;;;5085776;28;20080;-64
2022/05/06 08:38:34;;;;;;;13.65;9.10;;;15.00;99.90;;;;;;5088649;28;20044;-65
2022/05/06 08:41:01;;;;;;;12.95;10.20;;;15.20;99.90;;;;;;5089051;28;20040;-66
2022/05/06 08:43:26;;;;;;;14.02;9.82;;;15.40;99.90;;;;;;5089949;28;20134;-64
2022/05/06 08:51:31;;;;;;;11.27;9.57;;;15.70;99.90;;;;;;5086703;28;20051;-64
2022/05/06 08:53:57;;;;;;;14.05;10.32;;;16.00;99.90;;;;;;5087738;28;20101;-64
2022/05/06 08:56:23;;;;;;;11.98;9.48;;;16.10;99.90;;;;;;5087741;28;20040;-64
2022/05/06 08:58:48;;;;;;;12.25;8.80;;;16.10;99.90;;;;;;5089418;28;20505;-64
2022/05/06 09:01:16;;;;;;;11.27;9.13;;;16.20;99.90;;;;;;5087893;28;20044;-63
2022/05/06 09:03:46;;;;;;;9.93;8.30;;;16.30;99.90;;;;;;5088805;28;20049;-65
2022/05/06 09:06:22;;;;;;;10.90;8.35;;;16.40;99.90;;;;;;5087441;28;20044;-64
2022/05/06 09:08:50;;;;;;;12.85;8.95;;;16.50;99.90;;;;;;5088420;28;20097;-64
2022/05/06 09:14:12;;;;;;;11.05;8.27;;;16.60;99.90;;;;;;5087315;28;20052;-64
2022/05/06 09:16:41;;;;;;;11.57;8.60;;;16.50;99.90;;;;;;5088451;28;20087;-64
2022/05/06 09:19:20;;;;;;;8.63;7.20;;;16.40;99.90;;;;;;5088105;28;20480;-65
2022/05/06 09:22:14;;;;;;;13.23;8.15;;;16.70;99.90;;;;;;5085966;28;20464;-64
2022/05/06 09:24:47;;;;;;;10.38;7.65;;;16.80;99.90;;;;;;5084362;28;20087;-64
2022/05/06 09:27:15;;;;;;;8.55;6.55;;;16.90;99.90;;;;;;5088978;28;20070;-64
2022/05/06 09:29:43;;;;;;;8.85;6.63;;;17.00;99.90;;;;;;5087720;28;20503;-63
2022/05/06 09:32:18;;;;;;;7.82;5.57;;;17.10;99.90;;;;;;5083427;28;20044;-65
2022/05/06 09:34:45;;;;;;;;;;;17.20;99.90;;;;;;5085852;28;20036;-66
2022/05/06 09:37:10;;;;;;;9.05;6.03;;;17.30;99.90;;;;;;5083726;28;19949;-65
2022/05/06 09:39:38;;;;;;;8.88;6.22;;;17.50;99.90;;;;;;5087919;28;20123;-65
2022/05/06 09:42:05;;;;;;;8.18;6.32;;;17.60;99.90;;;;;;5090027;28;20096;-64
2022/05/06 09:44:32;;;;;;;8.32;5.15;;;17.90;99.90;;;;;;5088448;28;20430;-64
2022/05/06 09:47:11;;;;;;;7.35;5.43;;;18.00;99.90;;;;;;5085425;28;20046;-64
2022/05/06 09:49:41;;;;;;;7.25;5.60;;;18.10;99.90;;;;;;5082659;28;20153;-65
2022/05/06 09:52:11;;;;;;;9.93;5.88;;;18.30;99.90;;;;;;5084143;28;20094;-64
2022/05/06 09:54:42;;;;;;;7.65;5.68;;;18.40;99.70;;;;;;5083343;28;20036;-64
2022/05/06 09:57:10;;;;;;;7.63;5.25;;;18.40;99.90;;;;;;5084539;28;20044;-65
2022/05/06 09:59:36;;;;;;;8.07;5.63;;;18.40;99.90;;;;;;5081671;28;20064;-64
2022/05/06 10:02:04;;;;;;;7.78;5.50;;;18.50;99.90;;;;;;5085079;28;20032;-65
2022/05/06 10:04:29;;;;;;;7.50;5.90;;;18.50;99.10;;;;;;5085966;28;20032;-65
2022/05/06 10:06:58;;;;;;;8.35;6.30;;;18.70;99.00;;;;;;5085015;28;20399;-64
2022/05/06 10:09:26;;;;;;;7.93;5.88;;;18.90;98.50;;;;;;5081531;28;20051;-64
2022/05/06 10:11:53;;;;;;;8.32;5.53;;;18.90;98.30;;;;;;5084990;28;20129;-65
2022/05/06 10:14:19;;;;;;;7.38;5.40;;;18.80;97.70;;;;;;5083565;28;20097;-63
2022/05/06 10:16:46;;;;;;;7.07;5.30;;;18.70;97.60;;;;;;5082352;28;20044;-64
2022/05/06 10:19:33;;;;;;;7.63;5.82;;;18.90;97.60;;;;;;5081145;28;20044;-64
2022/05/06 10:21:58;;;;;;;8.10;5.85;;;18.80;95.60;;;;;;5079995;28;20151;-63
2022/05/06 10:24:24;;;;;;;13.27;5.50;;;19.00;97.60;;;;;;5083638;28;20166;-64
2022/05/06 10:26:53;;;;;;;8.35;5.75;;;19.00;97.00;;;;;;5083027;28;20155;-64
2022/05/06 10:32:25;;;;;;;7.53;5.30;;;18.90;96.30;;;;;;5085071;28;20040;-63
2022/05/06 10:35:05;;;;;;;7.10;4.85;;;19.00;97.30;;;;;;5082488;28;20141;-63
2022/05/06 10:37:44;;;;;;;6.65;4.90;;;19.10;96.60;;;;;;5081440;28;20032;-63
2022/05/06 10:40:25;;;;;;;8.98;5.28;;;19.00;94.20;;;;;;5084003;28;20044;-63
2022/05/06 10:42:51;;;;;;;6.18;4.38;;;19.00;96.00;;;;;;5084510;28;20114;-65
2022/05/06 10:45:32;;;;;;;7.13;5.30;;;19.00;95.70;;;;;;5085756;28;20070;-63
2022/05/06 10:47:58;;;;;;;6.00;3.70;;;19.00;95.70;;;;;;5088407;28;20044;-64
2022/05/06 10:50:25;;;;;;;7.50;3.72;;;19.00;94.10;;;;;;5080816;28;20119;-64
2022/05/06 10:52:52;;;;;;;6.70;4.25;;;19.10;93.30;;;;;;5091271;28;20043;-64
2022/05/06 10:55:19;;;;;;;6.85;4.70;;;19.00;93.40;;;;;;5091374;28;20130;-64
2022/05/06 10:57:44;;;;;;;6.70;4.07;;;19.00;93.80;;;;;;5090986;28;20044;-64
2022/05/06 11:00:10;;;;;;;6.80;4.70;;;19.00;94.10;;;;;;5089449;28;20052;-64
2022/05/06 11:02:38;;;;;;;5.82;3.85;;;18.90;93.00;;;;;;5091025;28;20079;-63
2022/05/06 11:05:08;;;;;;;8.00;4.32;;;18.90;92.40;;;;;;5091663;28;20104;-64
2022/05/06 11:07:35;;;;;;;6.38;3.65;;;19.00;92.60;;;;;;5089302;28;20043;-63
2022/05/06 11:10:12;;;;;;;7.38;4.25;;;19.00;91.10;;;;;;5093034;28;20043;-63
2022/05/06 11:12:40;;;;;;;8.00;4.05;;;19.10;90.90;;;;;;5087793;28;20080;-64
2022/05/06 11:15:08;;;;;;;5.90;3.80;;;19.30;90.60;;;;;;5088062;28;20068;-62
2022/05/06 11:17:34;;;;;;;7.28;4.28;;;19.20;85.20;;;;;;5090960;28;20032;-64
2022/05/06 11:20:15;;;;;;;7.53;4.20;;;19.20;86.00;;;;;;5090065;28;20056;-63
2022/05/06 11:22:57;;;;;;;7.68;4.45;;;19.30;88.70;;;;;;5087622;28;20151;-63
2022/05/06 11:25:24;;;;;;;7.63;4.78;;;19.40;88.20;;;;;;5091250;28;20082;-63
2022/05/06 11:27:52;;;;;;;8.25;5.20;;;19.40;88.20;;;;;;5090405;28;20043;-64
2022/05/06 11:30:20;;;;;;;8.90;6.07;;;19.40;88.50;;;;;;5090303;28;20052;-65
2022/05/06 11:32:50;;;;;;;7.55;5.78;;;19.50;90.30;;;;;;5086531;28;20471;-63
2022/05/06 11:35:25;;;;;;;9.07;6.13;;;19.50;90.70;;;;;;5087411;28;20115;-63
2022/05/06 11:37:50;;;;;;;7.72;5.63;;;19.60;90.40;;;;;;5091971;28;20051;-64
2022/05/06 11:42:53;;;;;;;9.93;6.10;;;19.70;87.80;;;;;;5080076;28;20044;-63
2022/05/06 11:48:20;;;;;;;8.68;6.45;;;19.80;90.20;;;;;;5090962;28;20109;-63
2022/05/06 11:50:48;;;;;;;9.18;6.03;;;20.00;90.00;;;;;;5071886;28;20044;-62
2022/05/06 11:53:18;;;;;;;19.15;6.50;;;20.10;90.60;;;;;;5082025;28;20044;-63
2022/05/06 11:55:46;;;;;;;10.23;5.95;;;20.20;87.40;;;;;;5085692;28;20484;-63
2022/05/06 11:58:16;;;;;;;9.88;4.97;;;20.20;86.00;;;;;;5083323;28;20056;-64
2022/05/06 12:00:43;;;;;;;7.50;4.78;;;20.30;86.90;;;;;;5085830;28;20375;-63
2022/05/06 12:03:10;;;;;;;6.57;4.05;;;20.40;86.80;;;;;;5087506;28;20408;-63
2022/05/06 12:05:37;;;;;;;6.75;4.80;;;20.50;84.50;;;;;;5084714;28;20058;-63
2022/05/06 12:08:04;;;;;;;7.57;4.80;;;20.60;82.80;;;;;;5081918;28;20488;-64
2022/05/06 12:10:34;;;;;;;8.23;4.38;;;20.60;82.70;;;;;;5084306;28;20052;-63
2022/05/06 12:13:07;;;;;;;8.23;4.78;;;20.70;82.90;;;;;;5083453;28;20079;-63
2022/05/06 12:15:39;;;;;;;5.65;3.00;;;20.70;80.90;;;;;;5084913;28;20484;-63
2022/05/06 12:18:11;;;;;;;5.82;3.05;;;20.70;80.80;;;;;;5084775;28;20372;-63
2022/05/06 12:20:37;;;;;;;5.22;3.10;;;20.70;78.50;;;;;;5087831;28;20040;-62
2022/05/06 12:23:07;;;;;;;6.93;2.72;;;20.60;77.30;;;;;;5086268;28;20048;-65
2022/05/06 12:25:39;;;;;;;5.15;2.72;;;20.70;76.80;;;;;;5089466;28;20123;-63
2022/05/06 12:28:05;;;;;;;5.50;2.97;;;20.80;77.80;;;;;;5088151;28;20040;-63
2022/05/06 12:30:32;;;;;;;5.18;2.80;;;20.70;76.90;;;;;;5087992;28;20444;-62
2022/05/06 12:33:09;;;;;;;4.75;2.58;;;20.70;76.70;;;;;;5088899;28;20457;-63
2022/05/06 12:35:54;;;;;;;6.15;2.63;;;20.80;76.20;;;;;;5084273;28;20048;-62
2022/05/06 12:38:21;;;;;;;7.03;2.65;;;20.90;76.40;;;;;;5089204;28;20123;-63
2022/05/06 12:40:48;;;;;;;7.75;2.85;;;20.90;76.10;;;;;;5086829;28;20441;-61
2022/05/06 12:43:14;;;;;;;5.32;2.53;;;20.90;74.40;;;;;;5089563;28;20158;-62
2022/05/06 12:45:51;;;;;;;6.22;2.75;;;20.90;74.60;;;;;;5086037;28;20111;-63
2022/05/06 12:51:03;;;;;;;4.70;2.30;;;21.00;74.50;;;;;;5084688;28;20090;-64
2022/05/06 12:53:29;;;;;;;7.35;2.45;;;21.20;75.20;;;;;;5089186;28;20376;-63
2022/05/06 12:55:54;;;;;;;6.38;3.08;;;21.20;73.20;;;;;;5089458;28;20052;-63
2022/05/06 12:58:23;;;;;;;6.97;2.85;;;21.20;73.30;;;;;;5090055;28;20048;-64
2022/05/06 13:00:49;;;;;;;5.43;2.00;;;21.20;72.70;;;;;;5089391;28;20360;-63
2022/05/06 13:03:15;;;;;;;4.80;2.63;;;21.30;72.40;;;;;;5087933;28;20036;-63
2022/05/06 13:05:43;;;;;;;4.63;2.70;;;21.40;71.00;;;;;;5087347;28;20138;-63
2022/05/06 13:08:09;;;;;;;6.38;3.10;;;21.40;71.70;;;;;;5089881;28;20036;-63
2022/05/06 13:10:35;;;;;;;6.45;2.80;;;21.40;72.20;;;;;;5089552;28;20044;-64
2022/05/06 13:13:02;;;;;;;6.53;2.70;;;21.50;72.30;;;;;;5088302;28;20039;-65
2022/05/06 13:15:28;;;;;;;5.55;2.72;;;21.60;71.40;;;;;;5085527;28;20044;-63
2022/05/06 13:17:54;;;;;;;16.67;4.15;;;21.60;72.70;;;;;;5087072;28;20391;-63